Terminal Aerodrome Forecast
Issued by NWS

Home | Current Version | Previous Version | Text Only | Print | Product List | Glossary On
Versions: 1 2 3 4 5 6 7 8 9 10 11 12 13 14 15 16 17 18 19 20 21
000
FTUS45 KABQ 050400 AAA
TAFTCC
TAF AMD
KTCC 050423Z 0504/0524 05007KT 3SM -SN BKN025 OVC040
     FM050700 VRB03KT P6SM OVC020
     FM051400 24006KT P6SM SCT012 BKN030
     FM051700 22012KT P6SM SCT030 SCT100=

USA.gov is the U.S. government's official web portal to all federal, state and local government web resources and services.